Time;durP1;ratioP1;P1;durP2;ratioP2;P2;SDS_P1;SDS_P2;PMS_P1;PMS_P2;Temp;Humidity;BMP_temperature;BMP_pressure;BME280_temperature;BME280_humidity;BME280_pressure;Samples;Min_cycle;Max_cycle;Signal;HPM_P1;HPM_P2
2022/04/29 00:00:06;;;;;;;15.32;5.75;;;;;;;9.87;93.28;102986.91;5102539;28;20055;-86
2022/04/29 00:02:32;;;;;;;13.23;5.80;;;;;;;9.77;92.94;102983.13;5103281;28;20016;-86
2022/04/29 00:04:57;;;;;;;12.90;6.20;;;;;;;9.72;93.26;102983.44;5103093;28;20112;-86
2022/04/29 00:07:22;;;;;;;13.93;5.60;;;;;;;9.67;93.65;102985.56;5082606;28;20114;-86
2022/04/29 00:09:47;;;;;;;11.55;5.72;;;;;;;9.66;93.44;102976.72;5083445;28;20579;-85
2022/04/29 00:12:13;;;;;;;15.98;5.78;;;;;;;9.63;93.51;102986.72;5082233;28;20107;-86
2022/04/29 00:14:38;;;;;;;12.55;5.82;;;;;;;9.62;93.34;102985.88;5082692;28;20039;-85
2022/04/29 00:17:05;;;;;;;14.43;5.53;;;;;;;9.57;93.40;102984.47;5082691;28;20523;-85
2022/04/29 00:19:30;;;;;;;13.00;5.72;;;;;;;9.53;93.94;102983.81;5062975;28;20038;-84
2022/04/29 00:21:56;;;;;;;11.45;5.28;;;;;;;9.49;94.40;102977.84;5080994;28;20393;-83
2022/04/29 00:24:21;;;;;;;14.50;5.72;;;;;;;9.45;94.62;102980.78;5080586;28;20035;-83
2022/04/29 00:26:46;;;;;;;14.38;5.07;;;;;;;9.44;93.96;102974.63;5062487;28;20814;-83
2022/04/29 00:29:12;;;;;;;15.80;5.53;;;;;;;9.42;94.31;102981.00;5080153;28;20019;-83
2022/04/29 00:31:38;;;;;;;12.80;5.28;;;;;;;9.41;94.11;102973.97;5080087;28;20093;-83
2022/04/29 00:34:04;;;;;;;10.63;5.15;;;;;;;9.38;94.06;102972.34;5062325;28;20016;-82
2022/04/29 00:36:29;;;;;;;11.63;5.25;;;;;;;9.33;93.72;102977.13;5080445;28;20053;-82
2022/04/29 00:38:54;;;;;;;13.65;4.95;;;;;;;9.33;94.09;102978.00;5080158;28;20028;-82
2022/04/29 00:41:22;;;;;;;12.50;5.35;;;;;;;9.31;95.23;102969.22;5080852;28;20470;-83
2022/04/29 00:44:04;;;;;;;11.07;5.10;;;;;;;9.30;95.14;102972.84;5062453;28;20031;-85
2022/04/29 00:46:40;;;;;;;16.25;5.32;;;;;;;9.30;94.90;102966.66;5081199;28;20020;-85
2022/04/29 00:49:08;;;;;;;14.50;5.28;;;;;;;9.19;94.69;102966.50;5081375;28;20028;-85
2022/04/29 00:51:34;;;;;;;12.38;5.25;;;;;;;9.17;95.04;102963.94;5082475;28;20059;-85
2022/04/29 00:54:01;;;;;;;11.15;5.28;;;;;;;9.07;95.84;102958.34;5080249;28;20518;-83
2022/04/29 00:56:29;;;;;;;12.07;5.85;;;;;;;8.99;95.74;102965.97;5079296;28;20696;-83
2022/04/29 00:59:09;;;;;;;13.13;4.88;;;;;;;8.93;95.96;102961.06;5081823;28;20051;-84
2022/04/29 01:01:37;;;;;;;15.82;5.43;;;;;;;8.91;96.14;102965.59;5062705;28;20157;-83
2022/04/29 01:04:03;;;;;;;12.50;4.78;;;;;;;8.88;95.96;102957.84;5080784;28;20043;-86
2022/04/29 01:06:28;;;;;;;10.32;5.20;;;;;;;8.87;96.57;102962.28;5061002;28;20020;-85
2022/04/29 01:08:53;;;;;;;14.70;5.30;;;;;;;8.88;95.85;102947.19;5080247;28;20112;-84
2022/04/29 01:11:26;;;;;;;19.63;4.93;;;;;;;8.90;96.03;102956.75;5079825;28;20384;-84
2022/04/29 01:13:53;;;;;;;14.85;5.30;;;;;;;8.83;95.52;102949.28;5081071;28;20028;-85
2022/04/29 01:16:19;;;;;;;16.85;5.60;;;;;;;8.76;95.52;102948.81;5081331;28;20024;-83
2022/04/29 01:18:47;;;;;;;18.92;5.22;;;;;;;8.69;96.79;102947.47;5061330;28;20189;-84
2022/04/29 01:21:14;;;;;;;14.43;5.68;;;;;;;8.65;96.13;102944.13;5078785;28;20016;-84
2022/04/29 01:23:41;;;;;;;11.57;5.05;;;;;;;8.73;96.97;102939.19;5061685;28;20024;-84
2022/04/29 01:26:06;;;;;;;9.68;5.00;;;;;;;8.66;96.09;102934.38;5080500;28;20107;-83
2022/04/29 01:28:33;;;;;;;14.65;5.35;;;;;;;8.65;96.39;102933.47;5079393;28;20122;-83
2022/04/29 01:30:59;;;;;;;13.77;5.25;;;;;;;8.61;96.08;102937.31;5079726;28;20638;-83
2022/04/29 01:33:28;;;;;;;15.55;5.20;;;;;;;8.54;96.48;102922.66;5078476;28;20035;-83
2022/04/29 01:35:55;;;;;;;10.27;5.03;;;;;;;8.53;96.94;102921.78;5078453;28;20020;-83
2022/04/29 01:38:21;;;;;;;18.08;5.35;;;;;;;8.44;97.12;102913.56;5079806;28;20081;-85
2022/04/29 01:40:46;;;;;;;10.93;5.22;;;;;;;8.46;97.16;102923.13;5081642;28;20012;-87
2022/04/29 01:43:11;;;;;;;11.63;5.18;;;;;;;8.41;97.46;102933.19;5082020;28;20028;-86
2022/04/29 01:45:38;;;;;;;13.18;5.63;;;;;;;8.39;97.99;102927.97;5082175;28;20059;-86
2022/04/29 01:48:03;;;;;;;14.70;5.40;;;;;;;8.35;97.98;102914.91;5081072;28;20016;-87
2022/04/29 01:50:29;;;;;;;15.15;5.72;;;;;;;8.34;98.04;102919.41;5080961;28;20051;-87
2022/04/29 01:52:54;;;;;;;15.60;5.47;;;;;;;8.29;98.12;102910.84;5080842;28;20455;-87
2022/04/29 01:55:20;;;;;;;10.52;5.13;;;;;;;8.29;98.28;102910.00;5081742;28;20083;-88
2022/04/29 01:57:49;;;;;;;16.17;5.90;;;;;;;8.25;98.59;102913.78;5081982;28;20509;-88
2022/04/29 02:00:22;;;;;;;17.75;5.95;;;;;;;8.25;98.93;102906.69;5063677;28;20035;-86
2022/04/29 02:02:47;;;;;;;18.45;6.32;;;;;;;8.23;99.39;102911.22;5080540;28;20028;-87
2022/04/29 02:05:13;;;;;;;18.73;6.20;;;;;;;8.21;98.78;102921.09;5062674;28;20466;-86
2022/04/29 02:07:40;;;;;;;16.45;6.30;;;;;;;8.12;99.02;102913.69;5080526;28;20028;-85
2022/04/29 02:10:06;;;;;;;12.43;5.72;;;;;;;8.10;99.77;102920.94;5081169;28;20021;-85
2022/04/29 02:12:31;;;;;;;14.18;6.20;;;;;;;8.09;100.00;102917.38;5081103;28;20028;-85
2022/04/29 02:14:58;;;;;;;13.80;6.10;;;;;;;8.11;100.00;102917.28;5062151;28;20051;-85
2022/04/29 02:17:24;;;;;;;17.88;5.85;;;;;;;8.11;100.00;102917.28;5077376;28;20036;-82
2022/04/29 02:19:49;;;;;;;11.95;6.05;;;;;;;8.08;99.96;102910.38;5077963;28;20046;-83
2022/04/29 02:22:15;;;;;;;13.65;6.35;;;;;;;8.14;100.00;102911.78;5057101;28;20084;-83
2022/04/29 02:24:42;;;;;;;12.70;5.55;;;;;;;8.13;100.00;102905.63;5079452;28;20068;-83
2022/04/29 02:27:08;;;;;;;13.80;6.28;;;;;;;8.12;100.00;102906.56;5080500;28;20600;-84
2022/04/29 02:29:34;;;;;;;12.85;5.80;;;;;;;8.10;100.00;102904.97;5061798;28;20119;-84
2022/04/29 02:31:59;;;;;;;15.25;6.47;;;;;;;8.10;99.73;102899.63;5079462;28;20454;-84
2022/04/29 02:34:25;;;;;;;15.20;6.78;;;;;;;8.01;100.00;102906.34;5079909;28;20028;-84
2022/04/29 02:36:51;;;;;;;14.25;6.80;;;;;;;7.98;100.00;102907.41;5079005;28;20396;-84
2022/04/29 02:39:17;;;;;;;14.93;6.85;;;;;;;7.98;100.00;102907.41;5078138;28;20035;-85
2022/04/29 02:41:42;;;;;;;18.45;6.78;;;;;;;7.92;100.00;102899.78;5079929;28;20020;-84
2022/04/29 02:44:07;;;;;;;13.82;6.65;;;;;;;7.91;100.00;102900.75;5079170;28;20034;-84
2022/04/29 02:46:33;;;;;;;13.52;6.35;;;;;;;7.90;100.00;102903.50;5080412;28;20023;-84
2022/04/29 02:48:59;;;;;;;13.93;6.90;;;;;;;7.89;100.00;102907.09;5079172;28;20024;-84
2022/04/29 02:51:24;;;;;;;14.07;6.47;;;;;;;7.89;100.00;102905.31;5060399;28;20163;-84
2022/04/29 02:53:51;;;;;;;16.85;7.00;;;;;;;7.84;100.00;102904.72;5079422;28;20039;-84
2022/04/29 02:56:17;;;;;;;17.27;6.80;;;;;;;7.79;100.00;102905.00;5079193;28;20031;-85
2022/04/29 02:58:42;;;;;;;13.77;7.05;;;;;;;7.84;100.00;102902.94;5079276;28;20028;-84
2022/04/29 03:01:08;;;;;;;18.15;7.65;;;;;;;7.81;100.00;102900.44;5079399;28;20026;-83
2022/04/29 03:03:33;;;;;;;21.92;7.15;;;;;;;7.84;100.00;102899.41;5079097;28;20547;-83
2022/04/29 03:05:58;;;;;;;20.30;7.43;;;;;;;7.81;100.00;102900.44;5060306;28;20114;-83
2022/04/29 03:08:24;;;;;;;14.82;7.15;;;;;;;7.84;100.00;102892.28;5078519;28;20066;-83
2022/04/29 03:10:49;;;;;;;20.33;7.38;;;;;;;7.87;100.00;102885.91;5060803;28;20020;-82
2022/04/29 03:13:15;;;;;;;17.38;7.43;;;;;;;7.84;100.00;102868.34;5078800;28;20089;-83
2022/04/29 03:15:40;;;;;;;17.65;7.30;;;;;;;7.87;100.00;102869.09;5079745;28;20103;-82
2022/04/29 03:18:17;;;;;;;22.17;7.75;;;;;;;7.82;100.00;102861.41;5078052;28;20028;-84
2022/04/29 03:20:43;;;;;;;19.23;7.63;;;;;;;7.80;100.00;102865.97;5079057;28;20048;-82
2022/04/29 03:23:10;;;;;;;15.32;8.02;;;;;;;7.75;100.00;102868.88;5059999;28;20173;-82
2022/04/29 03:25:35;;;;;;;13.45;7.65;;;;;;;7.71;100.00;102862.06;5078870;28;20024;-82
2022/04/29 03:28:02;;;;;;;13.32;7.85;;;;;;;7.65;100.00;102865.94;5079433;28;20031;-81
2022/04/29 03:30:28;;;;;;;18.35;8.13;;;;;;;7.63;100.00;102861.66;5078666;28;20024;-82
2022/04/29 03:33:01;;;;;;;18.83;7.90;;;;;;;7.59;100.00;102873.44;5077948;28;20032;-83
2022/04/29 03:35:26;;;;;;;17.25;7.75;;;;;;;7.60;100.00;102881.31;5087204;28;20028;-83
2022/04/29 03:37:53;;;;;;;17.50;8.20;;;;;;;7.54;100.00;102886.16;5098573;28;20090;-83
2022/04/29 03:40:23;;;;;;;21.25;8.48;;;;;;;7.35;100.00;102886.34;5098345;28;20538;-84
2022/04/29 03:42:49;;;;;;;20.05;8.70;;;;;;;7.40;100.00;102892.25;5099262;28;20030;-83
2022/04/29 03:45:15;;;;;;;19.40;9.40;;;;;;;7.43;100.00;102882.31;5098903;28;20035;-83
2022/04/29 03:47:41;;;;;;;19.10;8.45;;;;;;;7.47;100.00;102880.34;5098349;28;20402;-83
2022/04/29 03:50:07;;;;;;;19.10;8.82;;;;;;;7.50;100.00;102873.97;5077401;28;20051;-83
2022/04/29 03:52:33;;;;;;;16.80;8.38;;;;;;;7.52;100.00;102874.72;5077541;28;20024;-83
2022/04/29 03:54:58;;;;;;;18.35;9.82;;;;;;;7.47;100.00;102873.22;5077981;28;20126;-82
2022/04/29 03:57:23;;;;;;;19.15;8.82;;;;;;;7.47;100.00;102862.56;5063591;28;20024;-82
2022/04/29 03:59:49;;;;;;;19.80;8.98;;;;;;;7.50;100.00;102869.50;5058772;28;20187;-85
2022/04/29 04:02:14;;;;;;;18.00;9.05;;;;;;;7.48;100.00;102871.41;5073688;28;20016;-85
2022/04/29 04:04:40;;;;;;;19.40;9.10;;;;;;;7.49;100.00;102875.78;5078977;28;20023;-85
2022/04/29 04:07:05;;;;;;;20.17;8.95;;;;;;;7.45;100.00;102871.56;5060662;28;20046;-84
2022/04/29 04:09:30;;;;;;;23.88;9.48;;;;;;;7.46;100.00;102867.97;5066765;28;20032;-84
2022/04/29 04:11:56;;;;;;;16.42;9.55;;;;;;;7.41;100.00;102870.91;5057507;28;20029;-84
2022/04/29 04:14:21;;;;;;;21.52;8.88;;;;;;;7.44;100.00;102877.84;5058320;28;20247;-84
2022/04/29 04:16:47;;;;;;;21.95;9.93;;;;;;;7.43;100.00;102871.69;5057700;28;20021;-82
2022/04/29 04:19:13;;;;;;;19.02;8.98;;;;;;;7.46;100.00;102858.19;5058002;28;20035;-82
2022/04/29 04:21:39;;;;;;;23.90;9.68;;;;;;;7.49;100.00;102869.63;5057859;28;20024;-82
2022/04/29 04:24:06;;;;;;;20.88;9.70;;;;;;;7.43;100.00;102858.41;5057943;28;20376;-82
2022/04/29 04:26:32;;;;;;;20.95;9.65;;;;;;;7.44;100.00;102864.56;5057585;28;20028;-84
2022/04/29 04:28:57;;;;;;;17.65;9.30;;;;;;;7.39;100.00;102862.16;5057671;28;20505;-84
2022/04/29 04:31:24;;;;;;;21.05;9.80;;;;;;;7.40;100.00;102865.66;5057584;28;20325;-83
2022/04/29 04:33:50;;;;;;;21.17;9.68;;;;;;;7.32;100.00;102868.78;5057098;28;20097;-84
2022/04/29 04:36:15;;;;;;;22.48;10.38;;;;;;;7.34;100.00;102869.56;5074123;28;20020;-82
2022/04/29 04:38:41;;;;;;;19.67;9.23;;;;;;;7.35;100.00;102858.00;5076732;28;20395;-82
2022/04/29 04:41:08;;;;;;;17.80;9.88;;;;;;;7.34;100.00;102863.41;5078124;28;20421;-83
2022/04/29 04:43:33;;;;;;;20.67;10.20;;;;;;;7.35;100.00;102863.31;5078385;28;20019;-83
2022/04/29 04:45:59;;;;;;;19.58;9.73;;;;;;;7.33;100.00;102867.88;5069160;28;20029;-84
2022/04/29 04:48:24;;;;;;;21.58;10.00;;;;;;;7.33;100.00;102856.34;5056642;28;20479;-84
2022/04/29 04:50:49;;;;;;;25.10;9.95;;;;;;;7.34;100.00;102864.25;5069966;28;20047;-83
2022/04/29 04:53:15;;;;;;;20.77;9.75;;;;;;;7.37;100.00;102869.38;5076953;28;20554;-82
2022/04/29 04:55:40;;;;;;;22.15;9.63;;;;;;;7.35;100.00;102858.00;5083116;28;20073;-82
2022/04/29 04:58:08;;;;;;;19.60;10.00;;;;;;;7.36;100.00;102857.03;5094320;28;20045;-82
2022/04/29 05:00:33;;;;;;;21.20;10.32;;;;;;;7.40;100.00;102863.91;5090078;28;20035;-82
2022/04/29 05:02:58;;;;;;;29.95;10.75;;;;;;;7.37;100.00;102856.09;5094784;28;20131;-83
2022/04/29 05:05:24;;;;;;;21.10;10.23;;;;;;;7.33;100.00;102861.66;5087873;28;20012;-83
2022/04/29 05:07:49;;;;;;;23.83;10.20;;;;;;;7.31;100.00;102863.56;5086910;28;20483;-82
2022/04/29 05:10:15;;;;;;;20.25;10.27;;;;;;;7.35;100.00;102859.78;5090246;28;20475;-81
2022/04/29 05:12:42;;;;;;;17.23;9.90;;;;;;;7.37;100.00;102858.75;5088035;28;20092;-81
2022/04/29 05:15:08;;;;;;;19.17;10.25;;;;;;;7.39;100.00;102866.63;5070101;28;20019;-81
2022/04/29 05:17:33;;;;;;;27.38;10.15;;;;;;;7.40;100.00;102871.00;5053630;28;20115;-81
2022/04/29 05:19:59;;;;;;;22.08;10.40;;;;;;;7.39;100.00;102872.81;5087633;28;20028;-82
2022/04/29 05:22:28;;;;;;;24.52;10.35;;;;;;;7.48;100.00;102871.41;5090323;28;20024;-81
2022/04/29 05:24:53;;;;;;;18.95;10.25;;;;;;;7.57;100.00;102875.31;5089790;28;20130;-82
2022/04/29 05:27:19;;;;;;;20.55;10.32;;;;;;;7.62;100.00;102868.78;5087535;28;20008;-81
2022/04/29 05:29:44;;;;;;;19.67;10.13;;;;;;;7.67;100.00;102879.13;5071664;28;20658;-82
2022/04/29 05:32:09;;;;;;;20.02;10.02;;;;;;;7.66;100.00;102869.47;5051734;28;20522;-81
2022/04/29 05:34:35;;;;;;;18.73;10.07;;;;;;;7.61;100.00;102869.72;5091089;28;20327;-81
2022/04/29 05:37:01;;;;;;;21.70;9.77;;;;;;;7.60;100.00;102873.34;5087306;28;20110;-82
2022/04/29 05:42:22;;;;;;;21.20;9.30;;;;;;;7.68;100.00;102880.00;5089230;28;20039;-81
2022/04/29 05:44:48;;;;;;;26.52;10.32;;;;;;;7.65;100.00;102857.97;5087168;28;20436;-82
2022/04/29 05:47:14;;;;;;;29.98;10.35;;;;;;;7.75;100.00;102860.06;5089056;28;20023;-82
2022/04/29 05:49:39;;;;;;;23.27;10.98;;;;;;;7.70;100.00;102860.34;5061702;28;20051;-81
2022/04/29 05:52:06;;;;;;;30.85;10.98;;;;;;;7.73;100.00;102870.78;5077877;28;20092;-81
2022/04/29 05:54:31;;;;;;;22.30;10.68;;;;;;;7.72;100.00;102857.59;5076482;28;20122;-81
2022/04/29 05:57:01;;;;;;;20.52;10.68;;;;;;;7.76;100.00;102870.63;5076811;28;20350;-83
2022/04/29 05:59:27;;;;;;;20.73;10.77;;;;;;;7.81;100.00;102876.50;5080610;28;20075;-81
2022/04/29 06:01:53;;;;;;;18.40;10.35;;;;;;;7.88;100.00;102884.97;5080104;28;20118;-81
2022/04/29 06:04:18;;;;;;;22.90;10.88;;;;;;;7.96;100.00;102882.72;5099068;28;20027;-82
2022/04/29 06:06:44;;;;;;;24.98;10.32;;;;;;;8.04;100.00;102884.88;5081014;28;20042;-82
2022/04/29 06:09:09;;;;;;;18.95;10.40;;;;;;;8.12;100.00;102885.28;5079653;28;20024;-82
2022/04/29 06:11:34;;;;;;;24.15;10.27;;;;;;;8.15;100.00;102887.75;5099886;28;20518;-82
2022/04/29 06:14:00;;;;;;;19.27;10.70;;;;;;;8.24;100.00;102888.13;5082301;28;20039;-82
2022/04/29 06:16:26;;;;;;;20.20;10.23;;;;;;;8.29;100.00;102897.53;5097794;28;20129;-83
2022/04/29 06:18:51;;;;;;;25.02;10.95;;;;;;;8.35;100.00;102893.63;5097411;28;20051;-83
2022/04/29 06:21:18;;;;;;;22.63;10.75;;;;;;;8.37;100.00;102881.09;5096272;28;20016;-83
2022/04/29 06:23:43;;;;;;;21.58;10.65;;;;;;;8.40;100.00;102892.41;5096383;28;20038;-82
2022/04/29 06:26:09;;;;;;;23.75;10.25;;;;;;;8.47;100.00;102897.34;5096385;28;20027;-82
2022/04/29 06:28:35;;;;;;;23.15;10.30;;;;;;;8.50;100.00;102891.84;5096776;28;20024;-82
2022/04/29 06:31:00;;;;;;;23.63;10.52;;;;;;;8.57;100.00;102903.81;5096740;28;20474;-82
2022/04/29 06:33:29;;;;;;;23.45;10.43;;;;;;;8.63;100.00;102898.09;5096458;28;20019;-82
2022/04/29 06:35:55;;;;;;;21.95;10.85;;;;;;;8.68;100.00;102904.00;5095636;28;20027;-82
2022/04/29 06:38:20;;;;;;;26.20;9.65;;;;;;;8.66;99.60;102899.72;5077329;28;20024;-82
2022/04/29 06:40:45;;;;;;;21.20;10.35;;;;;;;8.64;99.29;102898.94;5097209;28;20433;-81
2022/04/29 06:43:11;;;;;;;21.90;10.52;;;;;;;8.60;99.92;102898.28;5092451;28;20831;-81
2022/04/29 06:45:36;;;;;;;21.30;10.60;;;;;;;8.65;100.00;102906.00;5088328;28;20031;-81
2022/04/29 06:48:01;;;;;;;23.58;10.43;;;;;;;8.66;99.94;102908.56;5096279;28;20511;-81
2022/04/29 06:50:27;;;;;;;25.13;10.73;;;;;;;8.72;100.00;102908.19;5073895;28;20052;-82
2022/04/29 06:52:52;;;;;;;21.27;11.18;;;;;;;8.82;100.00;102907.59;5083201;28;20386;-82
2022/04/29 06:55:18;;;;;;;24.75;9.88;;;;;;;8.93;100.00;102911.28;5057806;28;20032;-82
2022/04/29 06:57:43;;;;;;;23.38;10.95;;;;;;;9.04;99.15;102904.38;5076483;28;20550;-82
2022/04/29 07:00:09;;;;;;;31.48;10.90;;;;;;;9.08;98.91;102905.88;5075421;28;20028;-81
2022/04/29 07:02:34;;;;;;;19.70;10.40;;;;;;;9.17;98.89;102915.97;5075611;28;20474;-82
2022/04/29 07:05:00;;;;;;;22.73;10.25;;;;;;;9.28;98.12;102920.56;5075956;28;20023;-81
2022/04/29 07:07:28;;;;;;;25.30;10.77;;;;;;;9.38;98.21;102920.81;5075144;28;20040;-82
2022/04/29 07:09:54;;;;;;;21.05;10.27;;;;;;;9.40;97.08;102910.91;5057742;28;20031;-81
2022/04/29 07:12:20;;;;;;;18.23;10.43;;;;;;;9.48;95.92;102917.44;5079948;28;20111;-82
2022/04/29 07:14:45;;;;;;;25.33;11.45;;;;;;;9.52;96.59;102913.63;5087640;28;20110;-83
2022/04/29 07:17:11;;;;;;;24.38;10.73;;;;;;;9.61;94.97;102912.13;5088964;28;20027;-82
2022/04/29 07:19:40;;;;;;;26.95;10.70;;;;;;;9.77;95.71;102911.94;5091589;28;20020;-81
2022/04/29 07:22:05;;;;;;;23.45;10.45;;;;;;;9.92;94.90;102910.03;5102378;28;20027;-82
2022/04/29 07:24:31;;;;;;;24.23;10.23;;;;;;;9.97;94.25;102918.56;5089161;28;20073;-81
2022/04/29 07:27:00;;;;;;;29.00;10.68;;;;;;;10.05;93.71;102908.22;5085635;28;20103;-83
2022/04/29 07:29:26;;;;;;;23.10;11.07;;;;;;;10.20;94.43;102908.97;5087822;28;20081;-83
2022/04/29 07:31:51;;;;;;;22.05;10.18;;;;;;;10.47;94.79;102902.66;5091705;28;20118;-82
2022/04/29 07:34:17;;;;;;;23.67;10.93;;;;;;;10.68;92.98;102905.63;5095031;28;20122;-82
2022/04/29 07:42:30;;;;;;;21.55;10.00;;;;;;;10.98;87.29;102898.97;5002740;28;20049;-82
2022/04/29 07:44:55;;;;;;;21.85;10.45;;;;;;;11.00;88.91;102905.94;5043995;28;20474;-82
2022/04/29 07:47:20;;;;;;;24.20;10.65;;;;;;;11.01;89.37;102906.78;5060079;28;20219;-82
2022/04/29 07:49:46;;;;;;;24.27;10.32;;;;;;;11.07;88.55;102905.50;5081503;28;20507;-83
2022/04/29 07:52:11;;;;;;;18.17;10.13;;;;;;;11.26;88.01;102911.16;5066400;28;20130;-83
2022/04/29 07:54:37;;;;;;;26.15;10.05;;;;;;;11.41;88.27;102895.78;5071400;28;20023;-82
2022/04/29 07:57:02;;;;;;;20.25;10.45;;;;;;;11.45;86.17;102899.91;5071361;28;20040;-82
2022/04/29 07:59:28;;;;;;;22.75;10.20;;;;;;;11.48;86.61;102910.41;5091997;28;20031;-82
2022/04/29 08:01:54;;;;;;;19.10;9.60;;;;;;;11.43;85.82;102907.22;5067895;28;20015;-82
2022/04/29 08:04:19;;;;;;;33.78;10.40;;;;;;;11.38;86.90;102917.41;5068640;28;20035;-81
2022/04/29 08:06:44;;;;;;;25.35;11.30;;;;;;;11.44;86.93;102919.63;5063205;28;20055;-82
2022/04/29 08:09:10;;;;;;;21.60;9.93;;;;;;;11.50;86.23;102915.63;5088016;28;20056;-81
2022/04/29 08:11:35;;;;;;;21.55;10.98;;;;;;;11.65;86.95;102918.97;5089419;28;20060;-85
2022/04/29 08:14:00;;;;;;;24.48;10.50;;;;;;;11.74;84.96;102921.81;5087723;28;20071;-83
2022/04/29 08:16:26;;;;;;;23.50;10.45;;;;;;;11.80;85.85;102927.66;5078386;28;20061;-84
2022/04/29 08:18:52;;;;;;;28.05;10.52;;;;;;;11.64;84.79;102920.78;5077682;28;20032;-83
2022/04/29 08:21:17;;;;;;;26.33;10.57;;;;;;;11.51;86.01;102915.53;5077155;28;20032;-85
2022/04/29 08:23:42;;;;;;;22.88;10.55;;;;;;;11.57;88.04;102908.84;5077096;28;20032;-84
2022/04/29 08:26:08;;;;;;;21.58;10.55;;;;;;;11.67;87.17;102917.88;5079992;28;20363;-84
2022/04/29 08:28:33;;;;;;;26.40;11.25;;;;;;;11.74;87.94;102919.13;5059710;28;20069;-83
2022/04/29 08:30:58;;;;;;;27.13;10.52;;;;;;;11.77;85.86;102912.69;5086096;28;20027;-85
2022/04/29 08:33:25;;;;;;;30.17;10.00;;;;;;;11.80;85.08;102922.31;5095707;28;20088;-84
2022/04/29 08:35:51;;;;;;;25.52;10.85;;;;;;;11.84;85.73;102927.28;5087260;28;20432;-84
2022/04/29 08:38:19;;;;;;;22.10;10.57;;;;;;;11.90;84.62;102923.31;5096311;28;20080;-84
2022/04/29 08:40:45;;;;;;;24.65;10.02;;;;;;;12.04;85.20;102916.91;5084851;28;20050;-85
2022/04/29 08:43:13;;;;;;;24.70;11.10;;;;;;;11.99;83.94;102927.13;5084732;28;20437;-84
2022/04/29 08:45:39;;;;;;;22.45;10.07;;;;;;;11.96;84.99;102927.34;5089031;28;20039;-82
2022/04/29 08:48:05;;;;;;;25.48;10.68;;;;;;;11.79;85.58;102918.75;5092257;28;20015;-82
2022/04/29 08:50:31;;;;;;;30.98;10.70;;;;;;;11.86;86.31;102922.69;5076294;28;20048;-82
2022/04/29 08:52:57;;;;;;;26.33;10.90;;;;;;;12.02;85.94;102922.38;5077233;28;20073;-82
2022/04/29 09:00:52;;;;;;;18.33;9.70;;;;;;;12.14;83.26;102925.91;5081081;28;20090;-82
2022/04/29 09:03:20;;;;;;;20.95;10.10;;;;;;;12.11;84.08;102926.16;5077849;28;20051;-82
2022/04/29 09:05:47;;;;;;;20.38;10.35;;;;;;;12.19;85.00;102922.88;5077047;28;20732;-82
2022/04/29 09:08:14;;;;;;;23.08;10.32;;;;;;;12.20;83.76;102917.38;5085957;28;20044;-81
2022/04/29 09:10:57;;;;;;;22.90;10.43;;;;;;;12.22;82.99;102918.13;5061934;28;20033;-81
2022/04/29 09:13:27;;;;;;;21.90;10.55;;;;;;;12.25;84.59;102919.72;5094403;28;20038;-81
2022/04/29 09:15:57;;;;;;;22.65;10.18;;;;;;;12.34;84.22;102915.44;5082814;28;20019;-82
2022/04/29 09:18:41;;;;;;;21.55;11.10;;;;;;;12.35;83.72;102918.00;5089177;28;20024;-82
2022/04/29 09:21:11;;;;;;;27.15;10.13;;;;;;;12.40;83.06;102923.84;5080608;28;20049;-82
2022/04/29 09:23:39;;;;;;;24.67;10.73;;;;;;;12.59;83.90;102922.38;5098626;28;20028;-82
2022/04/29 09:26:05;;;;;;;26.38;10.55;;;;;;;12.69;82.28;102932.25;5074709;28;20665;-82
2022/04/29 09:28:33;;;;;;;22.55;9.90;;;;;;;12.90;81.43;102923.44;5066077;28;20062;-82
2022/04/29 09:31:00;;;;;;;30.33;9.77;;;;;;;13.02;81.75;102911.69;5087375;28;20489;-82
2022/04/29 09:33:27;;;;;;;23.45;9.88;;;;;;;13.05;81.57;102913.25;5082503;28;20446;-85
2022/04/29 09:35:54;;;;;;;36.78;10.60;;;;;;;12.96;79.65;102898.78;5065630;28;20058;-85
2022/04/29 09:41:05;;;;;;;24.85;10.63;;;;;;;12.87;80.73;102921.84;5086723;28;20654;-84
2022/04/29 09:43:36;;;;;;;19.40;10.13;;;;;;;12.81;80.78;102929.53;5078916;28;20433;-81
2022/04/29 09:46:13;;;;;;;24.27;10.40;;;;;;;12.81;81.57;102940.25;5081499;28;20052;-82
2022/04/29 09:49:08;;;;;;;22.40;9.95;;;;;;;12.93;81.83;102944.63;5090708;28;20640;-85
2022/04/29 09:51:53;;;;;;;24.55;9.35;;;;;;;13.07;81.19;102936.31;5093056;28;20482;-84
2022/04/29 09:54:35;;;;;;;25.48;9.77;;;;;;;13.17;80.70;102923.00;5065990;28;20094;-85
2022/04/29 09:57:15;;;;;;;26.13;9.70;;;;;;;13.32;80.31;102926.25;5088769;28;20290;-84
2022/04/29 09:59:44;;;;;;;22.15;9.70;;;;;;;13.31;79.39;102927.22;5068834;28;20047;-84
2022/04/29 10:02:11;;;;;;;22.88;9.02;;;;;;;13.46;79.00;102918.88;5085028;28;20050;-82
2022/04/29 10:04:40;;;;;;;24.02;9.63;;;;;;;13.34;77.84;102926.13;5086795;28;20172;-83
2022/04/29 10:07:07;;;;;;;22.67;8.85;;;;;;;13.21;79.53;102904.81;5067704;28;20362;-83
2022/04/29 10:09:35;;;;;;;23.65;8.90;;;;;;;13.23;79.41;102906.38;5083832;28;20035;-83
2022/04/29 10:12:04;;;;;;;21.75;9.05;;;;;;;13.21;79.40;102912.88;5097395;28;20023;-82
2022/04/29 10:14:31;;;;;;;33.58;9.20;;;;;;;13.22;79.11;102909.19;5095991;28;20335;-82
2022/04/29 10:22:51;;;;;;;19.27;8.88;;;;;;;13.33;79.35;102901.13;5096264;28;20031;-82
2022/04/29 10:25:20;;;;;;;22.17;8.80;;;;;;;13.50;80.17;102904.25;5083201;28;20032;-81
2022/04/29 10:27:48;;;;;;;24.63;9.40;;;;;;;13.53;78.17;102909.34;5064687;28;20414;-83
2022/04/29 10:30:15;;;;;;;21.92;9.15;;;;;;;13.57;78.16;102905.41;5097023;28;20072;-85
2022/04/29 10:33:02;;;;;;;22.27;8.48;;;;;;;13.56;77.50;102907.25;5096468;28;20494;-85
2022/04/29 10:35:43;;;;;;;20.25;8.23;;;;;;;13.54;78.89;102905.66;5096285;28;20274;-83
2022/04/29 10:38:22;;;;;;;23.52;7.80;;;;;;;13.56;78.34;102896.50;5096770;28;20371;-84
2022/04/29 10:41:08;;;;;;;18.08;8.15;;;;;;;13.74;78.27;102901.28;5098141;28;20084;-83
2022/04/29 10:43:38;;;;;;;23.02;8.05;;;;;;;13.87;78.01;102901.09;5097315;28;20137;-83
2022/04/29 10:46:03;;;;;;;18.50;7.72;;;;;;;13.95;76.73;102898.56;5101659;28;20049;-84
2022/04/29 10:48:33;;;;;;;20.13;8.25;;;;;;;13.98;76.03;102891.13;5082882;28;20102;-84
2022/04/29 10:51:17;;;;;;;21.35;8.45;;;;;;;14.13;76.41;102890.75;5101250;28;20062;-83
2022/04/29 10:53:44;;;;;;;17.73;7.53;;;;;;;14.19;74.76;102892.91;5100484;28;20039;-83
2022/04/29 10:56:34;;;;;;;22.25;8.18;;;;;;;14.25;75.31;102878.91;5084882;28;20168;-84
2022/04/29 10:59:09;;;;;;;21.05;7.68;;;;;;;14.20;75.42;102885.69;5080958;28;20114;-82
2022/04/29 11:01:36;;;;;;;17.98;7.53;;;;;;;14.26;76.30;102882.47;5078389;28;20031;-82
2022/04/29 11:04:06;;;;;;;25.13;7.85;;;;;;;14.39;74.80;102876.84;5100728;28;20024;-82
2022/04/29 11:06:36;;;;;;;22.92;7.75;;;;;;;14.49;73.20;102883.97;5100039;28;20024;-83
2022/04/29 11:09:01;;;;;;;21.38;7.47;;;;;;;14.57;72.66;102887.81;5074412;28;20050;-82
2022/04/29 11:11:43;;;;;;;18.33;7.28;;;;;;;14.57;72.49;102883.28;5088643;28;20058;-82
2022/04/29 11:14:10;;;;;;;18.02;7.75;;;;;;;14.67;71.88;102877.97;5089174;28;20421;-83
2022/04/29 11:17:07;;;;;;;22.63;7.57;;;;;;;14.91;70.62;102873.03;5090314;28;20157;-83
2022/04/29 11:19:40;;;;;;;16.35;6.60;;;;;;;14.99;69.08;102877.72;5090683;28;20035;-82
2022/04/29 11:24:52;;;;;;;15.55;6.88;;;;;;;15.17;68.15;102867.09;5088105;28;20359;-83
2022/04/29 11:27:28;;;;;;;17.55;6.63;;;;;;;15.31;66.56;102863.16;5079557;28;20074;-82
2022/04/29 11:29:56;;;;;;;17.83;7.35;;;;;;;15.33;66.12;102858.47;5080057;28;20068;-83
2022/04/29 11:32:26;;;;;;;22.40;7.07;;;;;;;15.52;66.21;102873.75;5078298;28;20019;-82
2022/04/29 11:35:00;;;;;;;18.88;6.70;;;;;;;15.46;63.24;102864.41;5079462;28;20111;-82
2022/04/29 11:37:34;;;;;;;21.83;6.80;;;;;;;15.61;63.20;102872.88;5078650;28;20078;-81
2022/04/29 11:40:10;;;;;;;22.35;7.32;;;;;;;15.82;64.48;102864.63;5079347;28;20051;-81
2022/04/29 11:42:36;;;;;;;15.63;5.95;;;;;;;16.10;62.50;102861.13;5079228;28;20026;-84